createdAt,value
2018-08-03T00:00:19.630Z,3.53
2018-08-03T00:02:46.902Z,3.63
2018-08-03T00:05:14.134Z,4.00
2018-08-03T00:07:41.398Z,3.00
2018-08-03T00:10:09.020Z,3.50
2018-08-03T00:12:36.357Z,3.10
2018-08-03T00:15:03.731Z,2.90
2018-08-03T00:17:30.976Z,3.33
2018-08-03T00:19:58.231Z,3.70
2018-08-03T00:22:25.484Z,3.60
2018-08-03T00:24:53.258Z,3.67
2018-08-03T00:27:20.493Z,2.93
2018-08-03T00:29:47.752Z,3.30
2018-08-03T00:32:14.981Z,2.97
2018-08-03T00:34:42.230Z,2.97
2018-08-03T00:37:09.702Z,3.30
2018-08-03T00:39:36.973Z,2.97
2018-08-03T00:42:04.236Z,3.70
2018-08-03T00:44:31.488Z,3.20
2018-08-03T00:46:58.748Z,3.10
2018-08-03T00:49:26.062Z,2.77
2018-08-03T00:51:53.324Z,3.43
2018-08-03T00:54:20.576Z,3.67
2018-08-03T00:56:47.807Z,2.90
2018-08-03T00:59:15.068Z,3.10
2018-08-03T01:01:42.309Z,3.00
2018-08-03T01:04:09.556Z,3.10
2018-08-03T01:06:37.015Z,3.00
2018-08-03T01:09:07.139Z,3.50
2018-08-03T01:11:34.513Z,3.20
2018-08-03T01:14:01.759Z,4.00
2018-08-03T01:16:29.056Z,3.40
2018-08-03T01:18:56.289Z,3.10
2018-08-03T01:21:23.544Z,3.50
2018-08-03T01:23:50.795Z,2.67
2018-08-03T01:26:18.064Z,3.83
2018-08-03T01:28:45.360Z,3.20
2018-08-03T01:31:12.635Z,3.03
2018-08-03T01:33:39.894Z,3.30
2018-08-03T01:36:07.169Z,2.93
2018-08-03T01:38:34.485Z,3.90
2018-08-03T01:41:01.789Z,3.27
2018-08-03T01:43:29.066Z,3.10
2018-08-03T01:45:56.304Z,3.13
2018-08-03T01:48:23.588Z,3.40
2018-08-03T01:50:50.916Z,3.30
2018-08-03T01:53:18.170Z,3.23
2018-08-03T01:55:45.528Z,3.97
2018-08-03T01:58:12.761Z,3.40
2018-08-03T02:00:40.022Z,3.27
2018-08-03T02:03:07.297Z,3.43
2018-08-03T02:05:34.571Z,3.80
2018-08-03T02:08:01.804Z,3.57
2018-08-03T02:10:29.045Z,3.20
2018-08-03T02:12:56.389Z,3.53
2018-08-03T02:15:23.651Z,3.13
2018-08-03T02:17:50.903Z,3.63
2018-08-03T02:20:18.150Z,4.10
2018-08-03T02:22:45.500Z,4.00
2018-08-03T02:25:12.792Z,3.60
2018-08-03T02:27:40.037Z,4.73
2018-08-03T02:30:07.288Z,3.57
2018-08-03T02:32:34.541Z,4.20
2018-08-03T02:35:01.775Z,4.10
2018-08-03T02:37:29.521Z,3.63
2018-08-03T02:39:56.777Z,4.00
2018-08-03T02:42:24.032Z,4.37
2018-08-03T02:44:51.275Z,3.90
2018-08-03T02:47:18.539Z,3.90
2018-08-03T02:49:45.850Z,4.60
2018-08-03T02:52:13.147Z,4.10
2018-08-03T02:54:40.583Z,4.20
2018-08-03T02:57:08.976Z,4.87
2018-08-03T02:59:36.220Z,4.10
2018-08-03T03:02:03.491Z,4.33
2018-08-03T03:04:30.719Z,4.33
2018-08-03T03:06:57.976Z,4.33
2018-08-03T03:09:25.215Z,4.00
2018-08-03T03:11:52.490Z,4.17
2018-08-03T03:14:19.799Z,4.83
2018-08-03T03:16:47.076Z,4.67
2018-08-03T03:19:14.443Z,4.37
2018-08-03T03:21:41.692Z,4.60
2018-08-03T03:24:08.935Z,4.50
2018-08-03T03:26:36.179Z,4.50
2018-08-03T03:29:03.453Z,5.10
2018-08-03T03:31:30.698Z,4.87
2018-08-03T03:33:57.957Z,4.90
2018-08-03T03:36:25.190Z,5.67
2018-08-03T03:38:52.468Z,5.70
2018-08-03T03:41:19.696Z,5.10
2018-08-03T03:43:46.951Z,4.70
2018-08-03T03:46:14.204Z,5.17
2018-08-03T03:48:41.463Z,4.80
2018-08-03T03:51:08.776Z,5.40
2018-08-03T03:53:35.964Z,5.60
2018-08-03T03:56:03.220Z,5.40
2018-08-03T03:58:30.461Z,4.80
2018-08-03T04:00:57.736Z,5.23
2018-08-03T04:03:24.972Z,5.87
2018-08-03T04:05:52.416Z,5.23
2018-08-03T04:08:20.304Z,5.83
2018-08-03T04:10:47.560Z,5.20
2018-08-03T04:13:14.893Z,5.40
2018-08-03T04:15:42.166Z,5.27
2018-08-03T04:18:20.089Z,5.90
2018-08-03T04:20:47.440Z,5.40
2018-08-03T04:23:14.751Z,6.10
2018-08-03T04:25:42.005Z,6.30
2018-08-03T04:28:09.284Z,5.27
2018-08-03T04:30:36.512Z,5.30
2018-08-03T04:33:03.768Z,6.30
2018-08-03T04:35:31.020Z,6.13
2018-08-03T04:37:58.275Z,6.10
2018-08-03T04:40:25.512Z,6.60
2018-08-03T04:42:52.779Z,6.07
2018-08-03T04:45:20.032Z,5.87
2018-08-03T04:47:48.611Z,6.47
2018-08-03T04:50:15.950Z,5.90
2018-08-03T04:52:43.211Z,6.77
2018-08-03T04:55:10.481Z,5.90
2018-08-03T04:57:37.788Z,6.80
2018-08-03T05:00:05.277Z,6.33
2018-08-03T05:02:32.519Z,6.53
2018-08-03T05:04:59.777Z,6.37
2018-08-03T05:07:27.034Z,7.60
2018-08-03T05:09:54.292Z,6.43
2018-08-03T05:12:21.522Z,6.00
2018-08-03T05:14:48.818Z,6.70
2018-08-03T05:17:16.075Z,6.73
2018-08-03T05:19:43.322Z,6.60
2018-08-03T05:22:10.574Z,6.20
2018-08-03T05:24:38.837Z,6.53
2018-08-03T05:27:06.085Z,6.47
2018-08-03T05:29:33.322Z,6.13
2018-08-03T05:32:00.551Z,6.60
2018-08-03T05:34:27.805Z,6.83
2018-08-03T05:36:55.080Z,7.10
2018-08-03T05:39:22.359Z,6.13
2018-08-03T05:41:49.604Z,6.00
2018-08-03T05:44:16.900Z,5.93
2018-08-03T05:46:44.125Z,6.10
2018-08-03T05:49:11.400Z,5.70
2018-08-03T05:51:38.682Z,5.43
2018-08-03T05:54:06.045Z,6.73
2018-08-03T05:56:33.304Z,6.10
2018-08-03T05:59:00.563Z,5.83
2018-08-03T06:01:27.819Z,6.50
2018-08-03T06:03:55.142Z,6.53
2018-08-03T06:06:22.352Z,6.50
2018-08-03T06:08:49.604Z,6.60
2018-08-03T06:11:16.936Z,6.50
2018-08-03T06:13:44.178Z,5.73
2018-08-03T06:16:11.429Z,6.50
2018-08-03T06:18:38.687Z,6.63
2018-08-03T06:21:05.943Z,7.30
2018-08-03T06:23:33.176Z,6.43
2018-08-03T06:26:00.534Z,6.13
2018-08-03T06:28:27.789Z,6.50
2018-08-03T06:30:55.021Z,5.60
2018-08-03T06:33:22.300Z,7.83
2018-08-03T06:35:49.548Z,7.67
2018-08-03T06:38:16.922Z,6.80
2018-08-03T06:40:44.254Z,7.07
2018-08-03T06:43:11.612Z,7.00
2018-08-03T06:45:38.874Z,7.27
2018-08-03T06:48:06.144Z,7.47
2018-08-03T06:50:33.379Z,7.03
2018-08-03T06:53:00.632Z,6.70
2018-08-03T06:55:27.911Z,7.80
2018-08-03T06:57:55.221Z,6.43
2018-08-03T07:00:22.507Z,7.40
2018-08-03T07:02:50.344Z,6.67
2018-08-03T07:05:19.056Z,6.40
2018-08-03T07:07:46.291Z,6.90
2018-08-03T07:10:13.536Z,7.37
2018-08-03T07:12:40.834Z,6.77
2018-08-03T07:15:08.136Z,6.33
2018-08-03T07:17:35.388Z,7.37
2018-08-03T07:20:02.686Z,6.43
2018-08-03T07:22:29.961Z,6.77
2018-08-03T07:24:57.231Z,6.60
2018-08-03T07:27:24.530Z,7.03
2018-08-03T07:29:52.147Z,6.67
2018-08-03T07:32:19.396Z,7.47
2018-08-03T07:34:46.772Z,8.23
2018-08-03T07:37:14.831Z,6.37
2018-08-03T07:39:42.072Z,6.40
2018-08-03T07:42:09.427Z,6.43
2018-08-03T07:44:36.755Z,7.67
2018-08-03T07:47:04.842Z,8.20
2018-08-03T07:49:32.114Z,7.50
2018-08-03T07:51:59.389Z,6.97
2018-08-03T07:54:26.659Z,6.53
2018-08-03T07:56:53.903Z,6.10
2018-08-03T07:59:21.660Z,6.60
2018-08-03T08:01:48.904Z,6.70
2018-08-03T08:04:16.269Z,6.07
2018-08-03T08:06:43.548Z,6.10
2018-08-03T08:09:12.908Z,6.20
2018-08-03T08:11:40.183Z,6.83
2018-08-03T08:14:07.742Z,6.27
2018-08-03T08:16:34.996Z,5.83
2018-08-03T08:19:02.529Z,6.37
2018-08-03T08:21:29.796Z,6.57
2018-08-03T08:23:57.318Z,6.87
2018-08-03T08:26:24.576Z,6.43
2018-08-03T08:28:51.867Z,6.53
2018-08-03T08:31:19.200Z,6.90
2018-08-03T08:33:46.441Z,6.13
2018-08-03T08:36:13.718Z,7.27
2018-08-03T08:38:41.020Z,6.23
2018-08-03T08:41:08.288Z,6.87
2018-08-03T08:43:35.805Z,7.17
2018-08-03T08:46:02.926Z,7.17
2018-08-03T08:48:30.201Z,6.60
2018-08-03T08:50:57.511Z,6.23
2018-08-03T08:53:24.796Z,7.00
2018-08-03T08:55:52.108Z,7.37
2018-08-03T08:58:19.376Z,6.60
2018-08-03T09:00:46.687Z,6.60
2018-08-03T09:03:13.883Z,6.40
2018-08-03T09:05:41.478Z,8.90
2018-08-03T09:08:08.712Z,6.53
2018-08-03T09:10:36.011Z,7.40
2018-08-03T09:13:03.311Z,8.10
2018-08-03T09:15:30.592Z,6.90
2018-08-03T09:17:57.856Z,7.70
2018-08-03T09:20:25.150Z,6.57
2018-08-03T09:22:52.508Z,7.27
2018-08-03T09:25:19.796Z,7.73
2018-08-03T09:27:47.096Z,6.23
2018-08-03T09:30:14.381Z,6.33
2018-08-03T09:32:42.200Z,6.50
2018-08-03T09:35:09.480Z,6.90
2018-08-03T09:37:36.851Z,6.43
2018-08-03T09:40:04.501Z,6.23
2018-08-03T09:42:31.765Z,5.47
2018-08-03T09:44:59.036Z,6.87
2018-08-03T09:47:26.336Z,5.90
2018-08-03T09:49:53.595Z,5.90
2018-08-03T09:52:20.888Z,6.40
2018-08-03T09:54:48.209Z,5.40
2018-08-03T09:57:15.469Z,5.80
2018-08-03T09:59:42.811Z,5.20
2018-08-03T10:02:10.324Z,5.73
2018-08-03T10:04:37.657Z,5.67
2018-08-03T10:07:05.003Z,4.83
2018-08-03T10:09:33.039Z,5.43
2018-08-03T10:12:00.459Z,5.17
2018-08-03T10:14:27.763Z,5.40
2018-08-03T10:16:55.107Z,4.60
2018-08-03T10:19:22.379Z,4.40
2018-08-03T10:21:49.749Z,4.70
2018-08-03T10:24:17.060Z,5.20
2018-08-03T10:26:44.453Z,4.93
2018-08-03T10:29:11.708Z,5.20
2018-08-03T10:31:39.056Z,5.30
2018-08-03T10:34:06.612Z,5.40
2018-08-03T10:36:33.888Z,4.60
2018-08-03T10:39:01.189Z,5.30
2018-08-03T10:41:28.472Z,5.00
2018-08-03T10:43:56.046Z,5.10
2018-08-03T10:46:23.376Z,5.40
2018-08-03T10:48:50.904Z,5.70
2018-08-03T10:51:18.078Z,5.10
2018-08-03T10:53:45.305Z,5.70
2018-08-03T10:56:12.571Z,6.20
2018-08-03T10:58:39.837Z,4.60
2018-08-03T11:01:07.076Z,5.37
2018-08-03T11:03:34.350Z,5.63
2018-08-03T11:06:01.700Z,5.73
2018-08-03T11:08:28.960Z,4.77
2018-08-03T11:10:56.201Z,4.70
2018-08-03T11:13:23.636Z,5.27
2018-08-03T11:15:50.915Z,4.90
2018-08-03T11:18:18.179Z,5.53
2018-08-03T11:20:45.424Z,5.73
2018-08-03T11:23:12.661Z,6.00
2018-08-03T11:25:39.940Z,5.40
2018-08-03T11:28:07.252Z,5.73
2018-08-03T11:30:34.609Z,5.30
2018-08-03T11:33:01.845Z,6.07
2018-08-03T11:35:29.105Z,6.10
2018-08-03T11:37:56.351Z,5.00
2018-08-03T11:40:23.634Z,5.57
2018-08-03T11:42:50.868Z,4.97
2018-08-03T11:45:18.147Z,5.53
2018-08-03T11:47:45.464Z,4.73
2018-08-03T11:50:12.753Z,4.43
2018-08-03T11:52:40.283Z,6.50
2018-08-03T11:55:07.548Z,5.90
2018-08-03T11:57:34.840Z,4.80
2018-08-03T12:00:02.487Z,4.80
2018-08-03T12:02:29.785Z,4.20
2018-08-03T12:04:57.043Z,4.57
2018-08-03T12:07:24.319Z,5.60
2018-08-03T12:09:51.760Z,5.90
2018-08-03T12:12:19.101Z,5.40
2018-08-03T12:14:46.367Z,4.60
2018-08-03T12:17:13.732Z,5.50
2018-08-03T12:19:41.085Z,5.40
2018-08-03T12:22:08.341Z,5.97
2018-08-03T12:24:35.608Z,6.03
2018-08-03T12:27:02.924Z,5.07
2018-08-03T12:29:30.233Z,5.37
2018-08-03T12:31:57.643Z,5.03
2018-08-03T12:34:24.888Z,5.03
2018-08-03T12:36:52.247Z,5.27
2018-08-03T12:39:19.500Z,4.80
2018-08-03T12:41:46.847Z,4.53
2018-08-03T12:44:14.118Z,4.20
2018-08-03T12:46:41.377Z,4.83
2018-08-03T12:49:08.632Z,4.27
2018-08-03T12:51:35.921Z,5.03
2018-08-03T12:54:03.141Z,5.53
2018-08-03T12:56:30.514Z,4.70
2018-08-03T12:58:57.819Z,4.63
2018-08-03T13:01:25.077Z,4.77
2018-08-03T13:03:52.301Z,4.83
2018-08-03T13:06:19.571Z,4.90
2018-08-03T13:08:46.924Z,4.13
2018-08-03T13:11:14.196Z,4.20
2018-08-03T13:13:41.432Z,4.33
2018-08-03T13:16:08.728Z,4.43
2018-08-03T13:18:35.971Z,3.90
2018-08-03T13:21:07.715Z,4.60
2018-08-03T13:23:39.432Z,4.50
2018-08-03T13:26:06.710Z,5.53
2018-08-03T13:28:33.968Z,4.97
2018-08-03T13:31:01.224Z,5.07
2018-08-03T13:33:28.610Z,4.47
2018-08-03T13:35:55.912Z,5.10
2018-08-03T13:38:23.300Z,4.67
2018-08-03T13:40:50.631Z,4.80
2018-08-03T13:43:17.896Z,6.00
2018-08-03T13:45:45.127Z,4.80
2018-08-03T13:48:12.525Z,5.13
2018-08-03T13:50:39.763Z,5.90
2018-08-03T13:53:07.022Z,5.60
2018-08-03T13:55:34.274Z,5.00
2018-08-03T13:58:01.590Z,5.50
2018-08-03T14:00:28.852Z,6.00
2018-08-03T14:02:56.176Z,5.90
2018-08-03T14:05:23.549Z,6.17
2018-08-03T14:07:50.812Z,6.17
2018-08-03T14:10:18.126Z,5.53
2018-08-03T14:12:45.378Z,5.70
2018-08-03T14:15:12.663Z,5.93
2018-08-03T14:17:39.933Z,6.40
2018-08-03T14:20:07.275Z,7.10
2018-08-03T14:22:34.560Z,5.30
2018-08-03T14:25:01.808Z,5.80
2018-08-03T14:27:29.089Z,6.13
2018-08-03T14:29:56.397Z,5.67
2018-08-03T14:32:23.647Z,5.50
2018-08-03T14:34:50.892Z,6.30
2018-08-03T14:37:18.769Z,5.83
2018-08-03T14:39:46.070Z,6.43
2018-08-03T14:42:13.463Z,6.97
2018-08-03T14:44:40.728Z,6.00
2018-08-03T14:47:07.994Z,6.67
2018-08-03T14:49:35.299Z,6.13
2018-08-03T14:52:02.569Z,7.03
2018-08-03T14:54:29.920Z,6.17
2018-08-03T14:56:57.172Z,6.10
2018-08-03T14:59:24.521Z,6.97
2018-08-03T15:01:51.772Z,5.77
2018-08-03T15:04:19.053Z,6.70
2018-08-03T15:06:46.293Z,5.90
2018-08-03T15:09:13.619Z,6.73
2018-08-03T15:11:41.177Z,6.10
2018-08-03T15:14:08.461Z,5.27
2018-08-03T15:16:36.639Z,6.30
2018-08-03T15:19:04.183Z,6.23
2018-08-03T15:21:31.475Z,5.40
2018-08-03T15:23:58.864Z,5.63
2018-08-03T15:26:26.146Z,6.30
2018-08-03T15:28:53.477Z,6.10
2018-08-03T15:31:20.743Z,5.80
2018-08-03T15:33:48.000Z,6.20
2018-08-03T15:36:15.412Z,6.07
2018-08-03T15:38:42.687Z,6.33
2018-08-03T15:41:09.985Z,6.10
2018-08-03T15:43:37.285Z,6.07
2018-08-03T15:46:04.652Z,5.10
2018-08-03T15:48:31.896Z,5.67
2018-08-03T15:50:59.156Z,5.43
2018-08-03T15:53:26.436Z,5.90
2018-08-03T15:55:53.674Z,5.73
2018-08-03T15:58:20.954Z,5.53
2018-08-03T16:00:48.206Z,4.83
2018-08-03T16:03:15.495Z,5.50
2018-08-03T16:05:42.775Z,4.93
2018-08-03T16:08:10.014Z,5.20
2018-08-03T16:10:37.270Z,5.13
2018-08-03T16:13:04.536Z,5.07
2018-08-03T16:15:31.772Z,5.60
2018-08-03T16:17:59.039Z,4.80
2018-08-03T16:20:26.357Z,4.90
2018-08-03T16:22:53.624Z,5.17
2018-08-03T16:25:20.868Z,5.00
2018-08-03T16:27:48.136Z,5.10
2018-08-03T16:30:15.384Z,5.00
2018-08-03T16:32:42.675Z,5.80
2018-08-03T16:35:10.718Z,4.30
2018-08-03T16:37:37.981Z,4.70
2018-08-03T16:40:05.805Z,4.90
2018-08-03T16:42:33.080Z,5.30
2018-08-03T16:45:00.373Z,5.20
2018-08-03T16:47:27.694Z,5.50
2018-08-03T16:49:54.970Z,4.53
2018-08-03T16:52:22.331Z,5.00
2018-08-03T16:54:49.664Z,4.77
2018-08-03T16:57:16.997Z,5.50
2018-08-03T16:59:44.292Z,5.20
2018-08-03T17:02:11.521Z,5.60
2018-08-03T17:04:38.798Z,5.30
2018-08-03T17:07:06.083Z,5.07
2018-08-03T17:09:33.353Z,5.17
2018-08-03T17:12:00.610Z,4.90
2018-08-03T17:14:27.903Z,4.97
2018-08-03T17:16:55.185Z,4.50
2018-08-03T17:19:22.488Z,5.00
2018-08-03T17:21:49.750Z,4.20
2018-08-03T17:24:17.020Z,4.50
2018-08-03T17:26:44.326Z,5.80
2018-08-03T17:29:11.697Z,5.27
2018-08-03T17:31:38.952Z,5.73
2018-08-03T17:34:06.222Z,5.13
2018-08-03T17:36:33.534Z,5.40
2018-08-03T17:39:00.821Z,5.07
2018-08-03T17:41:28.089Z,4.20
2018-08-03T17:43:55.410Z,4.70
2018-08-03T17:46:22.694Z,4.20
2018-08-03T17:48:49.960Z,4.53
2018-08-03T17:51:17.230Z,4.10
2018-08-03T17:53:44.482Z,4.87
2018-08-03T17:56:11.784Z,4.40
2018-08-03T17:58:39.040Z,4.40
2018-08-03T18:01:06.422Z,4.30
2018-08-03T18:03:33.773Z,4.30
2018-08-03T18:06:01.091Z,4.80
2018-08-03T18:08:28.323Z,4.63
2018-08-03T18:10:55.693Z,3.90
2018-08-03T18:13:23.030Z,3.97
2018-08-03T18:15:50.311Z,4.30
2018-08-03T18:18:17.654Z,4.10
2018-08-03T18:20:44.892Z,4.53
2018-08-03T18:23:12.174Z,4.47
2018-08-03T18:25:39.427Z,5.10
2018-08-03T18:28:06.711Z,4.50
2018-08-03T18:30:33.965Z,3.93
2018-08-03T18:33:01.442Z,3.77
2018-08-03T18:35:28.744Z,4.30
2018-08-03T18:37:56.051Z,3.40
2018-08-03T18:40:23.459Z,4.40
2018-08-03T18:42:50.708Z,4.43
2018-08-03T18:45:18.138Z,4.30
2018-08-03T18:47:45.397Z,3.97
2018-08-03T18:50:12.701Z,4.10
2018-08-03T18:52:40.068Z,4.30
2018-08-03T18:55:07.349Z,5.07
2018-08-03T18:57:34.725Z,4.17
2018-08-03T19:00:02.017Z,4.77
2018-08-03T19:02:29.291Z,4.50
2018-08-03T19:04:56.759Z,4.83
2018-08-03T19:10:19.083Z,4.30
2018-08-03T19:18:38.471Z,4.73
2018-08-03T19:21:14.470Z,4.80
2018-08-03T19:23:41.838Z,5.80
2018-08-03T19:26:09.167Z,5.10
2018-08-03T19:28:37.033Z,5.27
2018-08-03T19:31:04.495Z,5.20
2018-08-03T19:33:31.860Z,5.33
2018-08-03T19:36:00.019Z,5.50
2018-08-03T19:38:28.121Z,5.33
2018-08-03T19:40:56.112Z,5.67
2018-08-03T19:43:33.332Z,5.10
2018-08-03T19:46:04.387Z,4.80
2018-08-03T19:48:38.491Z,4.60
2018-08-03T19:51:06.509Z,5.17
2018-08-03T19:53:39.594Z,4.57
2018-08-03T19:56:07.841Z,4.87
2018-08-03T19:58:36.166Z,4.70
2018-08-03T20:01:09.500Z,4.10
2018-08-03T20:03:40.639Z,4.20
2018-08-03T20:06:10.365Z,4.17
2018-08-03T20:08:37.646Z,4.30
2018-08-03T20:11:04.952Z,4.67
2018-08-03T20:13:32.400Z,4.53
2018-08-03T20:15:59.774Z,4.70
2018-08-03T20:18:27.028Z,5.10
2018-08-03T20:20:54.352Z,4.63
2018-08-03T20:23:21.770Z,4.83
2018-08-03T20:25:49.069Z,4.10
2018-08-03T20:28:16.349Z,4.20
2018-08-03T20:30:43.687Z,4.37
2018-08-03T20:33:10.952Z,4.40
2018-08-03T20:35:38.285Z,3.70
2018-08-03T20:38:06.063Z,4.67
2018-08-03T20:40:33.337Z,3.93
2018-08-03T20:43:00.637Z,4.30
2018-08-03T20:45:27.902Z,4.10
2018-08-03T20:47:55.213Z,4.20
2018-08-03T20:50:22.497Z,4.47
2018-08-03T20:52:50.333Z,4.10
2018-08-03T20:55:17.668Z,4.33
2018-08-03T20:57:44.999Z,3.80
2018-08-03T21:00:12.269Z,3.70
2018-08-03T21:02:39.561Z,3.80
2018-08-03T21:05:06.847Z,4.17
2018-08-03T21:07:34.209Z,4.23
2018-08-03T21:10:01.505Z,4.77
2018-08-03T21:12:28.757Z,4.37
2018-08-03T21:14:56.050Z,4.33
2018-08-03T21:17:23.317Z,3.60
2018-08-03T21:19:50.577Z,3.97
2018-08-03T21:22:17.865Z,4.00
2018-08-03T21:24:45.124Z,4.10
2018-08-03T21:27:12.427Z,4.27
2018-08-03T21:29:39.688Z,3.70
2018-08-03T21:32:06.980Z,3.97
2018-08-03T21:34:41.371Z,3.70
2018-08-03T21:37:08.618Z,3.57
2018-08-03T21:39:42.460Z,3.63
2018-08-03T21:42:09.724Z,3.90
2018-08-03T21:44:36.992Z,4.17
2018-08-03T21:47:04.382Z,4.00
2018-08-03T21:49:31.631Z,3.80
2018-08-03T21:51:59.088Z,4.30
2018-08-03T21:54:26.512Z,3.73
2018-08-03T21:56:53.866Z,3.83
2018-08-03T21:59:21.164Z,3.83
2018-08-03T22:01:48.447Z,3.70
2018-08-03T22:04:15.816Z,3.90
2018-08-03T22:06:43.178Z,3.77
2018-08-03T22:09:10.658Z,4.00
2018-08-03T22:11:37.952Z,3.90
2018-08-03T22:14:05.351Z,4.00
2018-08-03T22:16:32.720Z,4.37
2018-08-03T22:18:59.963Z,3.67
2018-08-03T22:21:27.221Z,3.80
2018-08-03T22:23:54.763Z,4.23
2018-08-03T22:26:22.022Z,4.13
2018-08-03T22:28:49.303Z,3.90
2018-08-03T22:31:16.729Z,5.10
2018-08-03T22:33:43.997Z,3.67
2018-08-03T22:36:11.326Z,4.97
2018-08-03T22:38:38.636Z,3.83
2018-08-03T22:41:05.856Z,4.87
2018-08-03T22:43:33.199Z,4.40
2018-08-03T22:46:00.512Z,4.70
2018-08-03T22:48:27.803Z,4.97
2018-08-03T22:50:55.033Z,4.73
2018-08-03T22:53:22.305Z,5.30
2018-08-03T22:55:49.555Z,4.37
2018-08-03T22:58:16.819Z,4.53
2018-08-03T23:00:44.057Z,4.77
2018-08-03T23:03:11.316Z,4.60
2018-08-03T23:05:38.651Z,4.83
2018-08-03T23:08:05.948Z,4.30
2018-08-03T23:10:33.263Z,4.63
2018-08-03T23:13:01.109Z,4.90
2018-08-03T23:15:28.351Z,4.30
2018-08-03T23:17:55.630Z,4.77
2018-08-03T23:20:22.888Z,4.70
2018-08-03T23:22:50.355Z,4.57
2018-08-03T23:25:17.595Z,4.83
2018-08-03T23:27:44.860Z,4.93
2018-08-03T23:30:12.404Z,4.10
2018-08-03T23:32:40.192Z,4.40
2018-08-03T23:35:07.556Z,4.30
2018-08-03T23:37:34.968Z,4.87
2018-08-03T23:40:02.250Z,4.80
2018-08-03T23:42:29.614Z,4.40
2018-08-03T23:44:56.860Z,4.83
2018-08-03T23:47:24.991Z,4.50
2018-08-03T23:49:52.248Z,4.87
2018-08-03T23:52:19.496Z,5.20
2018-08-03T23:54:46.751Z,4.27
2018-08-03T23:57:14.023Z,4.43
2018-08-03T23:59:41.368Z,5.07
